sensor_id;sensor_type;location;lat;lon;timestamp;P1;durP1;ratioP1;P2;durP2;ratioP2
54384;SDS011;40284;52.878;5.998;2023-04-06T00:01:58;8.80;;;5.05;;
54384;SDS011;40284;52.878;5.998;2023-04-06T00:04:24;8.85;;;5.25;;
54384;SDS011;40284;52.878;5.998;2023-04-06T00:06:50;7.70;;;5.78;;
54384;SDS011;40284;52.878;5.998;2023-04-06T00:09:16;9.85;;;5.25;;
54384;SDS011;40284;52.878;5.998;2023-04-06T00:11:42;8.60;;;5.30;;
54384;SDS011;40284;52.878;5.998;2023-04-06T00:14:08;10.27;;;5.80;;
54384;SDS011;40284;52.878;5.998;2023-04-06T00:16:35;8.65;;;5.05;;
54384;SDS011;40284;52.878;5.998;2023-04-06T00:19:01;7.10;;;5.05;;
54384;SDS011;40284;52.878;5.998;2023-04-06T00:21:27;7.68;;;5.18;;
54384;SDS011;40284;52.878;5.998;2023-04-06T00:23:53;6.20;;;4.55;;
54384;SDS011;40284;52.878;5.998;2023-04-06T00:26:19;8.65;;;5.13;;
54384;SDS011;40284;52.878;5.998;2023-04-06T00:28:45;11.23;;;5.38;;
54384;SDS011;40284;52.878;5.998;2023-04-06T00:31:11;6.43;;;5.10;;
54384;SDS011;40284;52.878;5.998;2023-04-06T00:33:37;7.18;;;5.28;;
54384;SDS011;40284;52.878;5.998;2023-04-06T00:36:03;9.57;;;5.53;;
54384;SDS011;40284;52.878;5.998;2023-04-06T00:38:30;11.57;;;5.78;;
54384;SDS011;40284;52.878;5.998;2023-04-06T00:40:56;8.10;;;5.70;;
54384;SDS011;40284;52.878;5.998;2023-04-06T00:43:22;9.50;;;5.50;;
54384;SDS011;40284;52.878;5.998;2023-04-06T00:45:49;8.40;;;5.82;;
54384;SDS011;40284;52.878;5.998;2023-04-06T00:48:15;8.93;;;6.00;;
54384;SDS011;40284;52.878;5.998;2023-04-06T00:50:42;6.82;;;5.35;;
54384;SDS011;40284;52.878;5.998;2023-04-06T00:53:08;10.35;;;6.05;;
54384;SDS011;40284;52.878;5.998;2023-04-06T00:55:34;7.82;;;5.28;;
54384;SDS011;40284;52.878;5.998;2023-04-06T00:58:01;8.25;;;5.63;;
54384;SDS011;40284;52.878;5.998;2023-04-06T01:00:27;8.35;;;5.53;;
54384;SDS011;40284;52.878;5.998;2023-04-06T01:02:53;7.93;;;5.53;;
54384;SDS011;40284;52.878;5.998;2023-04-06T01:05:20;10.50;;;6.25;;
54384;SDS011;40284;52.878;5.998;2023-04-06T01:07:46;9.20;;;5.65;;
54384;SDS011;40284;52.878;5.998;2023-04-06T01:10:22;10.38;;;6.07;;
54384;SDS011;40284;52.878;5.998;2023-04-06T01:12:48;8.50;;;5.85;;
54384;SDS011;40284;52.878;5.998;2023-04-06T01:15:14;10.35;;;5.47;;
54384;SDS011;40284;52.878;5.998;2023-04-06T01:17:40;7.68;;;5.50;;
54384;SDS011;40284;52.878;5.998;2023-04-06T01:20:07;8.25;;;5.35;;
54384;SDS011;40284;52.878;5.998;2023-04-06T01:22:33;7.25;;;5.72;;
54384;SDS011;40284;52.878;5.998;2023-04-06T01:24:59;9.57;;;6.18;;
54384;SDS011;40284;52.878;5.998;2023-04-06T01:27:25;8.68;;;5.18;;
54384;SDS011;40284;52.878;5.998;2023-04-06T01:29:53;8.50;;;5.53;;
54384;SDS011;40284;52.878;5.998;2023-04-06T01:32:19;9.10;;;5.63;;
54384;SDS011;40284;52.878;5.998;2023-04-06T01:34:45;9.70;;;6.00;;
54384;SDS011;40284;52.878;5.998;2023-04-06T01:37:12;9.10;;;5.72;;
54384;SDS011;40284;52.878;5.998;2023-04-06T01:39:38;8.23;;;5.35;;
54384;SDS011;40284;52.878;5.998;2023-04-06T01:42:04;21.58;;;6.30;;
54384;SDS011;40284;52.878;5.998;2023-04-06T01:44:31;9.30;;;5.90;;
54384;SDS011;40284;52.878;5.998;2023-04-06T01:46:57;12.00;;;6.65;;
54384;SDS011;40284;52.878;5.998;2023-04-06T01:49:23;10.10;;;6.25;;
54384;SDS011;40284;52.878;5.998;2023-04-06T01:51:49;9.82;;;5.93;;
54384;SDS011;40284;52.878;5.998;2023-04-06T01:54:16;9.35;;;5.75;;
54384;SDS011;40284;52.878;5.998;2023-04-06T01:56:42;11.48;;;6.28;;
54384;SDS011;40284;52.878;5.998;2023-04-06T01:59:08;8.65;;;6.28;;
54384;SDS011;40284;52.878;5.998;2023-04-06T02:01:34;10.25;;;5.88;;
54384;SDS011;40284;52.878;5.998;2023-04-06T02:04:00;9.25;;;5.85;;
54384;SDS011;40284;52.878;5.998;2023-04-06T02:06:26;9.82;;;7.07;;
54384;SDS011;40284;52.878;5.998;2023-04-06T02:08:52;11.85;;;6.13;;
54384;SDS011;40284;52.878;5.998;2023-04-06T02:11:18;8.23;;;6.15;;
54384;SDS011;40284;52.878;5.998;2023-04-06T02:13:45;9.55;;;6.22;;
54384;SDS011;40284;52.878;5.998;2023-04-06T02:16:11;7.55;;;5.88;;
54384;SDS011;40284;52.878;5.998;2023-04-06T02:18:37;7.57;;;5.72;;
54384;SDS011;40284;52.878;5.998;2023-04-06T02:21:03;9.35;;;6.32;;
54384;SDS011;40284;52.878;5.998;2023-04-06T02:23:29;12.80;;;6.68;;
54384;SDS011;40284;52.878;5.998;2023-04-06T02:25:55;10.10;;;6.28;;
54384;SDS011;40284;52.878;5.998;2023-04-06T02:28:21;9.85;;;6.60;;
54384;SDS011;40284;52.878;5.998;2023-04-06T02:30:47;10.82;;;6.72;;
54384;SDS011;40284;52.878;5.998;2023-04-06T02:33:14;11.40;;;6.30;;
54384;SDS011;40284;52.878;5.998;2023-04-06T02:35:40;10.93;;;7.05;;
54384;SDS011;40284;52.878;5.998;2023-04-06T02:38:06;9.15;;;7.10;;
54384;SDS011;40284;52.878;5.998;2023-04-06T02:40:32;8.13;;;6.45;;
54384;SDS011;40284;52.878;5.998;2023-04-06T02:42:58;10.50;;;7.10;;
54384;SDS011;40284;52.878;5.998;2023-04-06T02:45:24;13.38;;;7.03;;
54384;SDS011;40284;52.878;5.998;2023-04-06T02:47:51;9.60;;;6.82;;
54384;SDS011;40284;52.878;5.998;2023-04-06T02:50:17;11.15;;;6.45;;
54384;SDS011;40284;52.878;5.998;2023-04-06T02:52:43;9.93;;;7.03;;
54384;SDS011;40284;52.878;5.998;2023-04-06T02:55:09;11.43;;;7.18;;
54384;SDS011;40284;52.878;5.998;2023-04-06T02:57:35;11.85;;;7.15;;
54384;SDS011;40284;52.878;5.998;2023-04-06T03:00:01;8.90;;;6.75;;
54384;SDS011;40284;52.878;5.998;2023-04-06T03:02:28;9.95;;;7.32;;
54384;SDS011;40284;52.878;5.998;2023-04-06T03:04:54;11.10;;;7.47;;
54384;SDS011;40284;52.878;5.998;2023-04-06T03:07:20;10.82;;;7.28;;
54384;SDS011;40284;52.878;5.998;2023-04-06T03:09:46;9.27;;;6.72;;
54384;SDS011;40284;52.878;5.998;2023-04-06T03:12:13;12.05;;;6.93;;
54384;SDS011;40284;52.878;5.998;2023-04-06T03:14:39;12.45;;;7.70;;
54384;SDS011;40284;52.878;5.998;2023-04-06T03:17:05;9.48;;;6.78;;
54384;SDS011;40284;52.878;5.998;2023-04-06T03:19:31;12.77;;;6.85;;
54384;SDS011;40284;52.878;5.998;2023-04-06T03:21:57;11.10;;;7.47;;
54384;SDS011;40284;52.878;5.998;2023-04-06T03:24:23;9.20;;;6.88;;
54384;SDS011;40284;52.878;5.998;2023-04-06T03:26:49;11.05;;;7.65;;
54384;SDS011;40284;52.878;5.998;2023-04-06T03:29:15;10.82;;;7.25;;
54384;SDS011;40284;52.878;5.998;2023-04-06T03:31:41;9.75;;;7.07;;
54384;SDS011;40284;52.878;5.998;2023-04-06T03:34:07;12.52;;;7.18;;
54384;SDS011;40284;52.878;5.998;2023-04-06T03:36:34;12.48;;;8.00;;
54384;SDS011;40284;52.878;5.998;2023-04-06T03:39:00;11.98;;;8.15;;
54384;SDS011;40284;52.878;5.998;2023-04-06T03:41:26;10.05;;;7.32;;
54384;SDS011;40284;52.878;5.998;2023-04-06T03:43:52;11.40;;;7.85;;
54384;SDS011;40284;52.878;5.998;2023-04-06T03:46:18;10.77;;;7.50;;
54384;SDS011;40284;52.878;5.998;2023-04-06T03:48:45;12.38;;;7.65;;
54384;SDS011;40284;52.878;5.998;2023-04-06T03:51:11;11.45;;;8.40;;
54384;SDS011;40284;52.878;5.998;2023-04-06T03:53:37;15.05;;;7.53;;
54384;SDS011;40284;52.878;5.998;2023-04-06T03:56:03;10.60;;;7.78;;
54384;SDS011;40284;52.878;5.998;2023-04-06T03:58:30;10.48;;;7.43;;
54384;SDS011;40284;52.878;5.998;2023-04-06T04:00:56;13.43;;;8.40;;
54384;SDS011;40284;52.878;5.998;2023-04-06T04:03:22;10.15;;;8.32;;
54384;SDS011;40284;52.878;5.998;2023-04-06T04:05:49;10.15;;;7.65;;
54384;SDS011;40284;52.878;5.998;2023-04-06T04:08:16;8.93;;;7.38;;
54384;SDS011;40284;52.878;5.998;2023-04-06T04:10:42;9.52;;;7.70;;
54384;SDS011;40284;52.878;5.998;2023-04-06T04:13:08;10.45;;;8.18;;
54384;SDS011;40284;52.878;5.998;2023-04-06T04:15:34;10.88;;;8.48;;
54384;SDS011;40284;52.878;5.998;2023-04-06T04:18:00;13.85;;;8.35;;
54384;SDS011;40284;52.878;5.998;2023-04-06T04:20:26;15.27;;;9.18;;
54384;SDS011;40284;52.878;5.998;2023-04-06T04:22:53;12.18;;;9.27;;
54384;SDS011;40284;52.878;5.998;2023-04-06T04:25:19;12.20;;;8.13;;
54384;SDS011;40284;52.878;5.998;2023-04-06T04:27:46;14.85;;;9.00;;
54384;SDS011;40284;52.878;5.998;2023-04-06T04:30:12;17.13;;;10.38;;
54384;SDS011;40284;52.878;5.998;2023-04-06T04:32:38;11.05;;;8.80;;
54384;SDS011;40284;52.878;5.998;2023-04-06T04:35:04;14.77;;;9.50;;
54384;SDS011;40284;52.878;5.998;2023-04-06T04:37:30;13.43;;;9.65;;
54384;SDS011;40284;52.878;5.998;2023-04-06T04:39:56;13.68;;;8.90;;
54384;SDS011;40284;52.878;5.998;2023-04-06T04:42:23;14.10;;;9.25;;
54384;SDS011;40284;52.878;5.998;2023-04-06T04:44:49;11.40;;;8.63;;
54384;SDS011;40284;52.878;5.998;2023-04-06T04:47:15;10.25;;;8.13;;
54384;SDS011;40284;52.878;5.998;2023-04-06T04:49:41;13.18;;;9.20;;
54384;SDS011;40284;52.878;5.998;2023-04-06T04:52:07;13.82;;;9.35;;
54384;SDS011;40284;52.878;5.998;2023-04-06T04:54:33;15.45;;;9.48;;
54384;SDS011;40284;52.878;5.998;2023-04-06T04:56:59;14.63;;;8.88;;
54384;SDS011;40284;52.878;5.998;2023-04-06T04:59:25;16.00;;;10.02;;
54384;SDS011;40284;52.878;5.998;2023-04-06T05:01:52;12.55;;;9.07;;
54384;SDS011;40284;52.878;5.998;2023-04-06T05:04:18;13.20;;;8.65;;
54384;SDS011;40284;52.878;5.998;2023-04-06T05:06:44;13.05;;;9.18;;
54384;SDS011;40284;52.878;5.998;2023-04-06T05:09:10;10.85;;;8.25;;
54384;SDS011;40284;52.878;5.998;2023-04-06T05:11:36;12.30;;;9.20;;
54384;SDS011;40284;52.878;5.998;2023-04-06T05:14:02;15.80;;;9.15;;
54384;SDS011;40284;52.878;5.998;2023-04-06T05:16:29;14.07;;;9.20;;
54384;SDS011;40284;52.878;5.998;2023-04-06T05:18:55;20.67;;;9.73;;
54384;SDS011;40284;52.878;5.998;2023-04-06T05:21:21;11.30;;;9.05;;
54384;SDS011;40284;52.878;5.998;2023-04-06T05:23:47;14.70;;;10.10;;
54384;SDS011;40284;52.878;5.998;2023-04-06T05:26:14;12.02;;;9.07;;
54384;SDS011;40284;52.878;5.998;2023-04-06T05:28:40;16.92;;;10.35;;
54384;SDS011;40284;52.878;5.998;2023-04-06T05:31:07;13.75;;;8.80;;
54384;SDS011;40284;52.878;5.998;2023-04-06T05:33:33;17.35;;;8.82;;
54384;SDS011;40284;52.878;5.998;2023-04-06T05:36:00;12.23;;;8.45;;
54384;SDS011;40284;52.878;5.998;2023-04-06T05:38:26;11.60;;;9.30;;
54384;SDS011;40284;52.878;5.998;2023-04-06T05:40:52;12.85;;;9.43;;
54384;SDS011;40284;52.878;5.998;2023-04-06T05:43:18;17.40;;;10.02;;
54384;SDS011;40284;52.878;5.998;2023-04-06T05:45:44;13.45;;;9.15;;
54384;SDS011;40284;52.878;5.998;2023-04-06T05:48:11;14.02;;;9.65;;
54384;SDS011;40284;52.878;5.998;2023-04-06T05:50:37;13.55;;;9.52;;
54384;SDS011;40284;52.878;5.998;2023-04-06T05:53:03;15.52;;;9.70;;
54384;SDS011;40284;52.878;5.998;2023-04-06T05:55:29;11.95;;;9.25;;
54384;SDS011;40284;52.878;5.998;2023-04-06T05:57:55;17.40;;;10.85;;
54384;SDS011;40284;52.878;5.998;2023-04-06T06:00:21;27.52;;;18.17;;
54384;SDS011;40284;52.878;5.998;2023-04-06T06:02:47;14.75;;;11.10;;
54384;SDS011;40284;52.878;5.998;2023-04-06T06:05:13;14.68;;;8.63;;
54384;SDS011;40284;52.878;5.998;2023-04-06T06:07:39;19.95;;;9.85;;
54384;SDS011;40284;52.878;5.998;2023-04-06T06:10:06;18.05;;;10.25;;
54384;SDS011;40284;52.878;5.998;2023-04-06T06:12:32;15.98;;;10.15;;
54384;SDS011;40284;52.878;5.998;2023-04-06T06:14:58;16.33;;;10.00;;
54384;SDS011;40284;52.878;5.998;2023-04-06T06:17:25;12.38;;;9.02;;
54384;SDS011;40284;52.878;5.998;2023-04-06T06:19:51;14.60;;;8.70;;
54384;SDS011;40284;52.878;5.998;2023-04-06T06:22:17;20.20;;;9.35;;
54384;SDS011;40284;52.878;5.998;2023-04-06T06:24:43;14.25;;;9.40;;
54384;SDS011;40284;52.878;5.998;2023-04-06T06:27:10;12.80;;;8.95;;
54384;SDS011;40284;52.878;5.998;2023-04-06T06:29:36;16.13;;;9.57;;
54384;SDS011;40284;52.878;5.998;2023-04-06T06:32:02;14.38;;;9.98;;
54384;SDS011;40284;52.878;5.998;2023-04-06T06:34:28;16.77;;;9.02;;
54384;SDS011;40284;52.878;5.998;2023-04-06T06:36:54;11.52;;;9.35;;
54384;SDS011;40284;52.878;5.998;2023-04-06T06:39:21;14.95;;;9.48;;
54384;SDS011;40284;52.878;5.998;2023-04-06T06:41:47;14.55;;;8.98;;
54384;SDS011;40284;52.878;5.998;2023-04-06T06:44:13;13.80;;;9.45;;
54384;SDS011;40284;52.878;5.998;2023-04-06T06:46:39;11.35;;;8.98;;
54384;SDS011;40284;52.878;5.998;2023-04-06T06:49:05;12.05;;;8.77;;
54384;SDS011;40284;52.878;5.998;2023-04-06T06:51:31;18.13;;;9.93;;
54384;SDS011;40284;52.878;5.998;2023-04-06T06:53:57;12.55;;;8.68;;
54384;SDS011;40284;52.878;5.998;2023-04-06T06:56:23;11.55;;;9.50;;
54384;SDS011;40284;52.878;5.998;2023-04-06T06:58:51;20.23;;;9.90;;
54384;SDS011;40284;52.878;5.998;2023-04-06T07:01:17;15.60;;;10.40;;
54384;SDS011;40284;52.878;5.998;2023-04-06T07:03:43;15.90;;;10.07;;
54384;SDS011;40284;52.878;5.998;2023-04-06T07:06:09;12.82;;;9.15;;
54384;SDS011;40284;52.878;5.998;2023-04-06T07:08:36;13.13;;;9.15;;
54384;SDS011;40284;52.878;5.998;2023-04-06T07:11:02;15.57;;;10.20;;
54384;SDS011;40284;52.878;5.998;2023-04-06T07:13:28;15.38;;;9.98;;
54384;SDS011;40284;52.878;5.998;2023-04-06T07:15:54;13.90;;;10.18;;
54384;SDS011;40284;52.878;5.998;2023-04-06T07:18:20;16.38;;;9.90;;
54384;SDS011;40284;52.878;5.998;2023-04-06T07:20:46;17.00;;;9.43;;
54384;SDS011;40284;52.878;5.998;2023-04-06T07:23:12;17.65;;;10.18;;
54384;SDS011;40284;52.878;5.998;2023-04-06T07:25:38;14.52;;;10.43;;
54384;SDS011;40284;52.878;5.998;2023-04-06T07:28:05;15.20;;;9.60;;
54384;SDS011;40284;52.878;5.998;2023-04-06T07:30:31;14.48;;;9.85;;
54384;SDS011;40284;52.878;5.998;2023-04-06T07:32:57;14.88;;;9.98;;
54384;SDS011;40284;52.878;5.998;2023-04-06T07:35:26;15.40;;;10.32;;
54384;SDS011;40284;52.878;5.998;2023-04-06T07:37:53;17.30;;;10.70;;
54384;SDS011;40284;52.878;5.998;2023-04-06T07:40:19;15.20;;;10.40;;
54384;SDS011;40284;52.878;5.998;2023-04-06T07:42:46;12.45;;;10.20;;
54384;SDS011;40284;52.878;5.998;2023-04-06T07:45:12;15.90;;;10.60;;
54384;SDS011;40284;52.878;5.998;2023-04-06T07:47:38;17.73;;;9.57;;
54384;SDS011;40284;52.878;5.998;2023-04-06T07:50:04;15.48;;;10.15;;
54384;SDS011;40284;52.878;5.998;2023-04-06T07:52:31;15.50;;;10.18;;
54384;SDS011;40284;52.878;5.998;2023-04-06T07:54:57;15.90;;;10.23;;
54384;SDS011;40284;52.878;5.998;2023-04-06T07:57:23;15.85;;;10.60;;
54384;SDS011;40284;52.878;5.998;2023-04-06T07:59:50;15.57;;;10.90;;
54384;SDS011;40284;52.878;5.998;2023-04-06T08:02:16;20.35;;;11.27;;
54384;SDS011;40284;52.878;5.998;2023-04-06T08:04:42;20.92;;;10.90;;
54384;SDS011;40284;52.878;5.998;2023-04-06T08:07:09;18.38;;;11.05;;
54384;SDS011;40284;52.878;5.998;2023-04-06T08:09:35;20.98;;;11.82;;
54384;SDS011;40284;52.878;5.998;2023-04-06T08:12:01;18.65;;;11.75;;
54384;SDS011;40284;52.878;5.998;2023-04-06T08:14:27;19.10;;;11.70;;
54384;SDS011;40284;52.878;5.998;2023-04-06T08:16:53;15.20;;;10.95;;
54384;SDS011;40284;52.878;5.998;2023-04-06T08:19:19;20.05;;;12.43;;
54384;SDS011;40284;52.878;5.998;2023-04-06T08:21:45;21.08;;;12.15;;
54384;SDS011;40284;52.878;5.998;2023-04-06T08:24:12;17.20;;;12.68;;
54384;SDS011;40284;52.878;5.998;2023-04-06T08:26:38;21.77;;;13.15;;
54384;SDS011;40284;52.878;5.998;2023-04-06T08:29:05;17.77;;;11.98;;
54384;SDS011;40284;52.878;5.998;2023-04-06T08:31:34;18.42;;;12.23;;
54384;SDS011;40284;52.878;5.998;2023-04-06T08:34:01;20.73;;;13.02;;
54384;SDS011;40284;52.878;5.998;2023-04-06T08:36:27;16.92;;;12.23;;
54384;SDS011;40284;52.878;5.998;2023-04-06T08:38:53;18.73;;;12.88;;
54384;SDS011;40284;52.878;5.998;2023-04-06T08:41:19;18.20;;;12.90;;
54384;SDS011;40284;52.878;5.998;2023-04-06T08:46:12;20.98;;;12.52;;
54384;SDS011;40284;52.878;5.998;2023-04-06T08:48:38;18.90;;;13.00;;
54384;SDS011;40284;52.878;5.998;2023-04-06T08:51:05;20.75;;;13.93;;
54384;SDS011;40284;52.878;5.998;2023-04-06T08:53:31;28.80;;;15.57;;
54384;SDS011;40284;52.878;5.998;2023-04-06T08:55:58;18.30;;;12.77;;
54384;SDS011;40284;52.878;5.998;2023-04-06T08:58:25;18.55;;;13.23;;
54384;SDS011;40284;52.878;5.998;2023-04-06T09:00:53;21.33;;;14.48;;
54384;SDS011;40284;52.878;5.998;2023-04-06T09:03:20;22.30;;;15.20;;
54384;SDS011;40284;52.878;5.998;2023-04-06T09:05:47;22.00;;;13.80;;
54384;SDS011;40284;52.878;5.998;2023-04-06T09:08:13;23.80;;;14.85;;
54384;SDS011;40284;52.878;5.998;2023-04-06T09:10:40;19.20;;;14.88;;
54384;SDS011;40284;52.878;5.998;2023-04-06T09:13:06;20.38;;;14.98;;
54384;SDS011;40284;52.878;5.998;2023-04-06T09:15:33;24.65;;;14.90;;
54384;SDS011;40284;52.878;5.998;2023-04-06T09:17:59;20.33;;;14.40;;
54384;SDS011;40284;52.878;5.998;2023-04-06T09:20:26;18.95;;;13.63;;
54384;SDS011;40284;52.878;5.998;2023-04-06T09:22:53;22.30;;;14.15;;
54384;SDS011;40284;52.878;5.998;2023-04-06T09:25:20;20.30;;;13.75;;
54384;SDS011;40284;52.878;5.998;2023-04-06T09:27:46;21.25;;;15.27;;
54384;SDS011;40284;52.878;5.998;2023-04-06T09:30:13;19.00;;;14.52;;
54384;SDS011;40284;52.878;5.998;2023-04-06T09:32:44;21.13;;;14.15;;
54384;SDS011;40284;52.878;5.998;2023-04-06T09:35:11;19.42;;;15.02;;
54384;SDS011;40284;52.878;5.998;2023-04-06T09:37:38;20.15;;;14.00;;
54384;SDS011;40284;52.878;5.998;2023-04-06T09:40:04;20.08;;;15.98;;
54384;SDS011;40284;52.878;5.998;2023-04-06T09:42:32;24.25;;;15.60;;
54384;SDS011;40284;52.878;5.998;2023-04-06T09:44:58;22.70;;;15.38;;
54384;SDS011;40284;52.878;5.998;2023-04-06T09:47:24;23.40;;;15.95;;
54384;SDS011;40284;52.878;5.998;2023-04-06T09:49:53;21.42;;;15.85;;
54384;SDS011;40284;52.878;5.998;2023-04-06T09:52:21;22.75;;;16.63;;
54384;SDS011;40284;52.878;5.998;2023-04-06T09:54:49;24.10;;;17.35;;
54384;SDS011;40284;52.878;5.998;2023-04-06T09:59:50;24.77;;;17.25;;
54384;SDS011;40284;52.878;5.998;2023-04-06T10:03:02;22.50;;;16.00;;
54384;SDS011;40284;52.878;5.998;2023-04-06T10:05:05;25.38;;;17.02;;
54384;SDS011;40284;52.878;5.998;2023-04-06T10:07:32;26.80;;;16.38;;
54384;SDS011;40284;52.878;5.998;2023-04-06T10:09:58;24.05;;;16.70;;
54384;SDS011;40284;52.878;5.998;2023-04-06T10:12:26;24.38;;;16.48;;
54384;SDS011;40284;52.878;5.998;2023-04-06T10:14:52;27.67;;;16.98;;
54384;SDS011;40284;52.878;5.998;2023-04-06T10:17:19;25.20;;;16.70;;
54384;SDS011;40284;52.878;5.998;2023-04-06T10:19:47;22.35;;;17.08;;
54384;SDS011;40284;52.878;5.998;2023-04-06T10:22:26;28.35;;;16.98;;
54384;SDS011;40284;52.878;5.998;2023-04-06T10:24:53;22.35;;;16.27;;
54384;SDS011;40284;52.878;5.998;2023-04-06T10:27:29;24.38;;;16.42;;
54384;SDS011;40284;52.878;5.998;2023-04-06T10:30:00;23.52;;;15.55;;
54384;SDS011;40284;52.878;5.998;2023-04-06T10:32:37;24.70;;;16.10;;
54384;SDS011;40284;52.878;5.998;2023-04-06T10:35:06;25.98;;;16.77;;
54384;SDS011;40284;52.878;5.998;2023-04-06T10:37:45;28.05;;;17.48;;
54384;SDS011;40284;52.878;5.998;2023-04-06T10:40:24;24.85;;;17.13;;
54384;SDS011;40284;52.878;5.998;2023-04-06T10:42:52;22.50;;;16.55;;
54384;SDS011;40284;52.878;5.998;2023-04-06T10:45:22;24.75;;;16.90;;
54384;SDS011;40284;52.878;5.998;2023-04-06T10:47:48;22.08;;;16.38;;
54384;SDS011;40284;52.878;5.998;2023-04-06T10:50:15;24.40;;;16.35;;
54384;SDS011;40284;52.878;5.998;2023-04-06T10:52:43;23.95;;;16.60;;
54384;SDS011;40284;52.878;5.998;2023-04-06T10:55:10;25.75;;;17.38;;
54384;SDS011;40284;52.878;5.998;2023-04-06T10:57:37;29.23;;;18.23;;
54384;SDS011;40284;52.878;5.998;2023-04-06T11:00:07;23.63;;;18.00;;
54384;SDS011;40284;52.878;5.998;2023-04-06T11:02:36;25.85;;;16.52;;
54384;SDS011;40284;52.878;5.998;2023-04-06T11:05:05;25.20;;;18.38;;
54384;SDS011;40284;52.878;5.998;2023-04-06T11:07:32;27.17;;;18.15;;
54384;SDS011;40284;52.878;5.998;2023-04-06T11:09:58;23.73;;;17.98;;
54384;SDS011;40284;52.878;5.998;2023-04-06T11:12:27;24.08;;;17.48;;
54384;SDS011;40284;52.878;5.998;2023-04-06T11:14:58;29.63;;;17.30;;
54384;SDS011;40284;52.878;5.998;2023-04-06T11:17:34;26.50;;;17.55;;
54384;SDS011;40284;52.878;5.998;2023-04-06T11:20:04;27.48;;;17.50;;
54384;SDS011;40284;52.878;5.998;2023-04-06T11:22:31;26.00;;;18.50;;
54384;SDS011;40284;52.878;5.998;2023-04-06T11:25:04;27.10;;;18.20;;
54384;SDS011;40284;52.878;5.998;2023-04-06T11:27:32;26.42;;;18.73;;
54384;SDS011;40284;52.878;5.998;2023-04-06T11:29:59;27.17;;;17.70;;
54384;SDS011;40284;52.878;5.998;2023-04-06T11:32:25;31.30;;;17.60;;
54384;SDS011;40284;52.878;5.998;2023-04-06T11:34:51;24.73;;;17.88;;
54384;SDS011;40284;52.878;5.998;2023-04-06T11:37:17;26.27;;;17.92;;
54384;SDS011;40284;52.878;5.998;2023-04-06T11:39:47;25.90;;;18.35;;
54384;SDS011;40284;52.878;5.998;2023-04-06T11:42:24;26.42;;;17.10;;
54384;SDS011;40284;52.878;5.998;2023-04-06T11:44:51;25.60;;;18.00;;
54384;SDS011;40284;52.878;5.998;2023-04-06T11:47:18;24.80;;;18.50;;
54384;SDS011;40284;52.878;5.998;2023-04-06T11:49:45;25.08;;;17.98;;
54384;SDS011;40284;52.878;5.998;2023-04-06T11:52:16;24.17;;;18.13;;
54384;SDS011;40284;52.878;5.998;2023-04-06T11:54:43;27.83;;;18.85;;
54384;SDS011;40284;52.878;5.998;2023-04-06T11:57:09;25.25;;;17.25;;
54384;SDS011;40284;52.878;5.998;2023-04-06T11:59:35;23.00;;;17.23;;
54384;SDS011;40284;52.878;5.998;2023-04-06T12:02:01;25.95;;;19.00;;
54384;SDS011;40284;52.878;5.998;2023-04-06T12:04:28;29.17;;;19.30;;
54384;SDS011;40284;52.878;5.998;2023-04-06T12:06:54;23.63;;;17.92;;
54384;SDS011;40284;52.878;5.998;2023-04-06T12:09:20;25.65;;;18.02;;
54384;SDS011;40284;52.878;5.998;2023-04-06T12:11:47;21.33;;;16.77;;
54384;SDS011;40284;52.878;5.998;2023-04-06T12:14:13;18.85;;;12.93;;
54384;SDS011;40284;52.878;5.998;2023-04-06T12:16:39;15.60;;;10.55;;
54384;SDS011;40284;52.878;5.998;2023-04-06T12:19:06;13.75;;;10.50;;
54384;SDS011;40284;52.878;5.998;2023-04-06T12:21:32;20.42;;;12.45;;
54384;SDS011;40284;52.878;5.998;2023-04-06T12:23:59;19.33;;;12.50;;
54384;SDS011;40284;52.878;5.998;2023-04-06T12:26:29;23.55;;;12.13;;
54384;SDS011;40284;52.878;5.998;2023-04-06T12:28:55;15.95;;;12.02;;
54384;SDS011;40284;52.878;5.998;2023-04-06T12:31:21;14.75;;;11.50;;
54384;SDS011;40284;52.878;5.998;2023-04-06T12:33:51;20.23;;;12.48;;
54384;SDS011;40284;52.878;5.998;2023-04-06T12:36:18;16.88;;;11.18;;
54384;SDS011;40284;52.878;5.998;2023-04-06T12:38:46;16.60;;;12.27;;
54384;SDS011;40284;52.878;5.998;2023-04-06T12:41:13;18.83;;;11.52;;
54384;SDS011;40284;52.878;5.998;2023-04-06T12:43:40;17.90;;;12.55;;
54384;SDS011;40284;52.878;5.998;2023-04-06T12:46:06;16.30;;;11.77;;
54384;SDS011;40284;52.878;5.998;2023-04-06T12:48:33;19.35;;;11.98;;
54384;SDS011;40284;52.878;5.998;2023-04-06T12:51:00;16.42;;;12.75;;
54384;SDS011;40284;52.878;5.998;2023-04-06T12:53:26;20.58;;;14.10;;
54384;SDS011;40284;52.878;5.998;2023-04-06T12:55:53;25.02;;;13.23;;
54384;SDS011;40284;52.878;5.998;2023-04-06T12:58:19;20.67;;;13.98;;
54384;SDS011;40284;52.878;5.998;2023-04-06T13:00:47;18.40;;;13.10;;
54384;SDS011;40284;52.878;5.998;2023-04-06T13:03:13;24.15;;;14.70;;
54384;SDS011;40284;52.878;5.998;2023-04-06T13:05:46;19.90;;;14.02;;
54384;SDS011;40284;52.878;5.998;2023-04-06T13:08:13;20.17;;;14.70;;
54384;SDS011;40284;52.878;5.998;2023-04-06T13:10:49;18.92;;;13.63;;
54384;SDS011;40284;52.878;5.998;2023-04-06T13:13:15;19.10;;;14.40;;
54384;SDS011;40284;52.878;5.998;2023-04-06T13:15:42;18.95;;;13.75;;
54384;SDS011;40284;52.878;5.998;2023-04-06T13:18:08;18.00;;;13.82;;
54384;SDS011;40284;52.878;5.998;2023-04-06T13:20:35;16.77;;;12.27;;
54384;SDS011;40284;52.878;5.998;2023-04-06T13:23:01;15.90;;;11.60;;
54384;SDS011;40284;52.878;5.998;2023-04-06T13:25:27;15.80;;;11.77;;
54384;SDS011;40284;52.878;5.998;2023-04-06T13:27:54;14.93;;;12.05;;
54384;SDS011;40284;52.878;5.998;2023-04-06T13:30:20;16.60;;;10.98;;
54384;SDS011;40284;52.878;5.998;2023-04-06T13:32:46;17.30;;;10.82;;
54384;SDS011;40284;52.878;5.998;2023-04-06T13:35:13;16.58;;;11.50;;
54384;SDS011;40284;52.878;5.998;2023-04-06T13:37:39;16.85;;;12.05;;
54384;SDS011;40284;52.878;5.998;2023-04-06T13:40:05;17.67;;;12.60;;
54384;SDS011;40284;52.878;5.998;2023-04-06T13:42:32;15.13;;;11.13;;
54384;SDS011;40284;52.878;5.998;2023-04-06T13:45:00;14.25;;;11.40;;
54384;SDS011;40284;52.878;5.998;2023-04-06T13:47:26;18.60;;;12.45;;
54384;SDS011;40284;52.878;5.998;2023-04-06T13:49:53;17.98;;;13.05;;
54384;SDS011;40284;52.878;5.998;2023-04-06T13:52:21;19.55;;;14.18;;
54384;SDS011;40284;52.878;5.998;2023-04-06T13:54:48;19.55;;;14.50;;
54384;SDS011;40284;52.878;5.998;2023-04-06T13:57:14;22.27;;;16.15;;
54384;SDS011;40284;52.878;5.998;2023-04-06T13:59:40;27.88;;;17.95;;
54384;SDS011;40284;52.878;5.998;2023-04-06T14:02:07;24.67;;;16.83;;
54384;SDS011;40284;52.878;5.998;2023-04-06T14:04:33;22.48;;;15.82;;
54384;SDS011;40284;52.878;5.998;2023-04-06T14:07:00;26.48;;;16.70;;
54384;SDS011;40284;52.878;5.998;2023-04-06T14:09:27;21.38;;;15.07;;
54384;SDS011;40284;52.878;5.998;2023-04-06T14:11:53;19.80;;;16.20;;
54384;SDS011;40284;52.878;5.998;2023-04-06T14:14:19;22.33;;;16.23;;
54384;SDS011;40284;52.878;5.998;2023-04-06T14:16:46;22.02;;;17.33;;
54384;SDS011;40284;52.878;5.998;2023-04-06T14:19:14;25.58;;;18.75;;
54384;SDS011;40284;52.878;5.998;2023-04-06T14:21:46;30.85;;;18.77;;
54384;SDS011;40284;52.878;5.998;2023-04-06T14:24:13;22.98;;;18.48;;
54384;SDS011;40284;52.878;5.998;2023-04-06T14:26:40;27.40;;;19.70;;
54384;SDS011;40284;52.878;5.998;2023-04-06T14:29:09;26.05;;;20.80;;
54384;SDS011;40284;52.878;5.998;2023-04-06T14:31:35;26.23;;;20.10;;
54384;SDS011;40284;52.878;5.998;2023-04-06T14:34:02;26.98;;;19.77;;